Time;durP1;ratioP1;P1;durP2;ratioP2;P2;SDS_P1;SDS_P2;PMS_P1;PMS_P2;Temp;Humidity;BMP_temperature;BMP_pressure;BME280_temperature;BME280_humidity;BME280_pressure;Samples;Min_cycle;Max_cycle;Signal;HPM_P1;HPM_P2
2022/10/31 00:00:08;;;;;;;15.90;6.85;;;12.70;99.90;;;;;;5042798;28;20044;-82
2022/10/31 00:02:35;;;;;;;17.13;7.20;;;12.70;99.90;;;;;;5075094;28;20455;-82
2022/10/31 00:05:01;;;;;;;17.88;6.88;;;12.60;99.90;;;;;;5075222;28;20044;-83
2022/10/31 00:07:28;;;;;;;14.48;6.30;;;12.60;99.90;;;;;;5041170;28;20045;-83
2022/10/31 00:09:55;;;;;;;13.23;6.05;;;12.60;99.90;;;;;;5042328;28;20406;-82
2022/10/31 00:12:21;;;;;;;14.57;6.40;;;12.60;99.90;;;;;;5042300;28;20044;-83
2022/10/31 00:14:48;;;;;;;11.70;5.65;;;12.40;99.90;;;;;;5041848;28;20044;-82
2022/10/31 00:17:15;;;;;;;13.50;6.22;;;12.30;99.90;;;;;;5028816;28;20029;-82
2022/10/31 00:19:41;;;;;;;14.90;5.60;;;12.40;99.90;;;;;;5019074;28;20489;-82
2022/10/31 00:22:08;;;;;;;17.17;6.00;;;12.30;99.90;;;;;;5019239;28;20083;-82
2022/10/31 00:24:35;;;;;;;14.43;6.32;;;12.30;99.90;;;;;;5025426;28;20039;-82
2022/10/31 00:27:02;;;;;;;16.02;6.30;;;12.20;99.90;;;;;;5071078;28;20068;-82
2022/10/31 00:29:28;;;;;;;12.75;6.10;;;12.20;99.90;;;;;;5055782;28;20563;-82
2022/10/31 00:31:55;;;;;;;22.83;7.25;;;12.20;99.90;;;;;;5019030;28;20095;-82
2022/10/31 00:34:21;;;;;;;17.10;6.90;;;12.20;99.90;;;;;;5035043;28;20046;-82
2022/10/31 00:36:48;;;;;;;15.65;7.25;;;12.10;99.90;;;;;;5034767;28;20400;-82
2022/10/31 00:39:15;;;;;;;18.50;8.27;;;12.10;99.90;;;;;;5034955;28;20033;-82
2022/10/31 00:41:41;;;;;;;18.95;7.22;;;12.10;99.90;;;;;;5034879;28;20095;-82
2022/10/31 00:44:08;;;;;;;19.23;7.90;;;12.00;99.90;;;;;;5034911;28;20084;-82
2022/10/31 00:46:35;;;;;;;18.20;7.35;;;12.00;99.90;;;;;;5018660;28;20090;-82
2022/10/31 00:49:01;;;;;;;18.30;7.18;;;12.00;99.90;;;;;;5067708;28;20045;-82
2022/10/31 00:51:28;;;;;;;16.50;6.93;;;11.90;99.90;;;;;;5018305;28;20144;-83
2022/10/31 00:53:55;;;;;;;17.95;7.50;;;11.90;99.90;;;;;;5051088;28;20136;-82
2022/10/31 00:56:21;;;;;;;17.90;7.28;;;11.80;99.90;;;;;;5034907;28;20087;-82
2022/10/31 00:58:48;;;;;;;18.48;6.78;;;11.80;99.90;;;;;;5017831;28;20053;-82
2022/10/31 01:01:15;;;;;;;13.50;6.65;;;11.80;99.90;;;;;;5050742;28;20575;-82
2022/10/31 01:03:41;;;;;;;20.38;7.28;;;11.80;99.90;;;;;;5017735;28;20076;-82
2022/10/31 01:06:12;;;;;;;17.60;7.63;;;11.80;99.90;;;;;;5018307;28;20048;-82
2022/10/31 01:08:39;;;;;;;21.17;7.55;;;11.80;99.90;;;;;;5058553;28;20091;-82
2022/10/31 01:11:14;;;;;;;14.88;6.35;;;11.90;99.90;;;;;;5054239;28;20044;-82
2022/10/31 01:13:41;;;;;;;14.10;6.50;;;11.80;99.90;;;;;;5070144;28;20087;-83
2022/10/31 01:16:11;;;;;;;12.88;7.30;;;11.80;99.90;;;;;;5070009;28;20037;-82
2022/10/31 01:18:39;;;;;;;12.18;6.25;;;11.80;99.90;;;;;;5070219;28;20413;-82
2022/10/31 01:21:14;;;;;;;13.60;6.28;;;11.80;99.90;;;;;;5070454;28;20399;-82
2022/10/31 01:23:41;;;;;;;12.57;6.30;;;11.70;99.90;;;;;;5070177;28;20516;-82
2022/10/31 01:26:15;;;;;;;17.80;6.50;;;11.70;99.90;;;;;;5055351;28;20049;-82
2022/10/31 01:28:49;;;;;;;13.45;6.25;;;11.70;99.90;;;;;;5071942;28;20408;-82
2022/10/31 01:31:17;;;;;;;13.18;5.40;;;11.70;99.90;;;;;;5073602;28;20044;-82
2022/10/31 01:33:44;;;;;;;14.05;5.68;;;11.60;99.90;;;;;;5073277;28;20051;-82
2022/10/31 01:36:15;;;;;;;17.80;6.32;;;11.60;99.90;;;;;;5057280;28;20036;-82
2022/10/31 01:38:42;;;;;;;16.95;6.40;;;11.60;99.90;;;;;;5073165;28;20032;-82
2022/10/31 01:41:11;;;;;;;16.95;6.70;;;11.50;99.90;;;;;;5073689;28;20032;-82
2022/10/31 01:43:50;;;;;;;11.10;5.68;;;11.50;99.90;;;;;;5073079;28;20412;-82
2022/10/31 01:46:39;;;;;;;14.18;6.15;;;11.50;99.90;;;;;;5073186;28;20044;-82
2022/10/31 01:49:18;;;;;;;17.85;6.63;;;11.40;99.90;;;;;;5088490;28;20059;-82
2022/10/31 01:51:50;;;;;;;10.63;5.75;;;11.40;99.90;;;;;;5073016;28;20566;-82
2022/10/31 01:54:20;;;;;;;15.82;5.75;;;11.40;99.90;;;;;;5073051;28;20067;-82
2022/10/31 01:56:55;;;;;;;15.18;6.07;;;11.40;99.90;;;;;;5072638;28;20044;-82
2022/10/31 01:59:24;;;;;;;11.73;6.25;;;11.40;99.90;;;;;;5073028;28;20066;-82
2022/10/31 02:01:52;;;;;;;15.05;6.63;;;11.40;99.90;;;;;;5072777;28;20044;-82
2022/10/31 02:04:20;;;;;;;14.00;6.70;;;11.40;99.90;;;;;;5089894;28;20135;-82
2022/10/31 02:06:53;;;;;;;21.25;7.05;;;11.40;99.90;;;;;;5056355;28;20044;-82
2022/10/31 02:09:23;;;;;;;12.27;5.93;;;11.40;99.90;;;;;;5072898;28;20036;-82
2022/10/31 02:11:52;;;;;;;13.60;5.70;;;11.40;99.90;;;;;;5089052;28;20102;-82
2022/10/31 02:14:22;;;;;;;16.58;7.20;;;11.40;99.90;;;;;;5072822;28;20052;-82
2022/10/31 02:16:49;;;;;;;12.73;5.75;;;11.40;99.90;;;;;;5071997;28;20105;-82
2022/10/31 02:19:27;;;;;;;17.85;6.90;;;11.30;99.90;;;;;;5067403;28;20051;-82
2022/10/31 02:22:09;;;;;;;15.93;6.43;;;11.30;99.90;;;;;;5054235;28;20127;-82
2022/10/31 02:24:49;;;;;;;15.70;7.03;;;11.30;99.90;;;;;;5065796;28;20060;-82
2022/10/31 02:27:32;;;;;;;12.70;6.40;;;11.20;99.90;;;;;;5052832;28;20053;-82
2022/10/31 02:30:09;;;;;;;17.00;6.72;;;11.20;99.90;;;;;;5059495;28;20123;-82
2022/10/31 02:32:51;;;;;;;13.65;5.90;;;11.10;99.90;;;;;;5072896;28;20048;-82
2022/10/31 02:35:53;;;;;;;15.18;6.68;;;11.10;99.90;;;;;;5089022;28;20095;-82
2022/10/31 02:38:29;;;;;;;13.10;6.32;;;11.00;99.90;;;;;;5072584;28;20090;-83
2022/10/31 02:41:18;;;;;;;14.48;5.90;;;11.00;99.90;;;;;;5059958;28;20037;-82
2022/10/31 02:43:54;;;;;;;12.43;6.18;;;11.00;99.90;;;;;;5052487;28;20076;-82
2022/10/31 02:46:30;;;;;;;12.82;6.10;;;10.90;99.90;;;;;;5053005;28;20041;-82
2022/10/31 02:49:04;;;;;;;15.52;6.55;;;10.90;99.90;;;;;;5052455;28;20056;-82
2022/10/31 02:51:31;;;;;;;16.50;6.43;;;10.80;99.90;;;;;;5066316;28;20039;-82
2022/10/31 02:53:58;;;;;;;14.18;5.90;;;10.80;99.90;;;;;;5055740;28;20044;-82
2022/10/31 02:56:24;;;;;;;18.25;6.28;;;10.80;99.90;;;;;;5072582;28;20036;-82
2022/10/31 02:59:04;;;;;;;12.93;5.90;;;10.70;99.90;;;;;;5039454;28;20040;-83
2022/10/31 03:01:55;;;;;;;12.63;5.30;;;10.70;99.90;;;;;;5070791;28;20033;-82
2022/10/31 03:04:40;;;;;;;12.88;5.78;;;10.70;99.90;;;;;;5072457;28;20033;-82
2022/10/31 03:07:37;;;;;;;15.38;5.95;;;10.60;99.90;;;;;;5072178;28;20131;-82
2022/10/31 03:10:13;;;;;;;21.50;6.72;;;10.60;99.90;;;;;;5071830;28;20090;-82
2022/10/31 03:13:04;;;;;;;13.38;6.03;;;10.60;99.90;;;;;;5054628;28;20075;-82
2022/10/31 03:15:35;;;;;;;13.63;6.18;;;10.50;99.90;;;;;;5051933;28;20068;-82
2022/10/31 03:18:05;;;;;;;13.23;6.00;;;10.50;99.90;;;;;;5052004;28;20086;-82
2022/10/31 03:20:45;;;;;;;17.05;6.32;;;10.40;99.90;;;;;;5051992;28;20127;-82
2022/10/31 03:23:16;;;;;;;15.20;6.15;;;10.40;99.90;;;;;;5077799;28;20703;-83
2022/10/31 03:25:43;;;;;;;15.80;5.93;;;10.40;99.90;;;;;;5088399;28;20044;-83
2022/10/31 03:28:12;;;;;;;11.82;6.18;;;10.40;99.90;;;;;;5073798;28;20060;-82
2022/10/31 03:30:43;;;;;;;13.13;5.78;;;10.40;99.90;;;;;;5075667;28;20832;-83
2022/10/31 03:33:16;;;;;;;12.60;5.38;;;10.40;99.90;;;;;;5069190;28;20040;-82
2022/10/31 03:35:46;;;;;;;12.82;5.82;;;10.30;99.90;;;;;;5055584;28;20041;-82
2022/10/31 03:38:14;;;;;;;12.07;5.88;;;10.30;99.90;;;;;;5055619;28;20116;-83
2022/10/31 03:40:44;;;;;;;13.02;6.05;;;10.20;99.90;;;;;;5023075;28;20043;-82
2022/10/31 03:43:16;;;;;;;13.77;5.88;;;10.20;99.90;;;;;;5055877;28;20048;-82
2022/10/31 03:45:47;;;;;;;12.90;5.68;;;10.20;99.90;;;;;;5055566;28;20040;-83
2022/10/31 03:48:17;;;;;;;14.95;6.57;;;10.10;99.90;;;;;;5055290;28;20037;-82
2022/10/31 03:50:52;;;;;;;9.85;5.00;;;10.10;99.90;;;;;;5055368;28;20087;-82
2022/10/31 03:53:29;;;;;;;14.18;5.50;;;10.10;99.90;;;;;;5055071;28;20132;-82
2022/10/31 03:56:27;;;;;;;12.07;6.07;;;10.00;99.90;;;;;;5035607;28;20045;-82
2022/10/31 03:59:16;;;;;;;11.30;6.00;;;10.00;99.90;;;;;;5035539;28;20509;-82
2022/10/31 04:01:49;;;;;;;16.05;5.95;;;10.00;99.90;;;;;;5035407;28;20104;-83
2022/10/31 04:04:16;;;;;;;14.63;6.13;;;9.90;99.90;;;;;;5041667;28;20081;-82
2022/10/31 04:06:45;;;;;;;11.60;5.53;;;9.90;99.90;;;;;;5038726;28;20400;-83
2022/10/31 04:09:14;;;;;;;15.38;6.25;;;9.90;99.90;;;;;;5054883;28;20099;-83
2022/10/31 04:11:48;;;;;;;11.90;5.97;;;9.80;99.90;;;;;;5055091;28;20049;-83
2022/10/31 04:14:15;;;;;;;11.63;5.97;;;9.80;99.90;;;;;;5071255;28;20072;-82
2022/10/31 04:16:43;;;;;;;14.88;6.22;;;9.70;99.90;;;;;;5038541;28;20107;-82
2022/10/31 04:19:14;;;;;;;11.40;5.85;;;9.70;99.90;;;;;;5038679;28;20032;-82
2022/10/31 04:21:43;;;;;;;13.52;5.63;;;9.70;99.90;;;;;;5054997;28;20037;-82
2022/10/31 04:24:10;;;;;;;10.95;5.40;;;9.70;99.90;;;;;;5039093;28;20044;-82
2022/10/31 04:26:37;;;;;;;12.00;5.82;;;9.60;99.90;;;;;;5071387;28;20061;-82
2022/10/31 04:29:04;;;;;;;12.43;5.75;;;9.70;99.90;;;;;;5032502;28;20060;-83
2022/10/31 04:31:31;;;;;;;14.90;6.78;;;9.60;99.90;;;;;;5074639;28;20040;-82
2022/10/31 04:33:57;;;;;;;11.77;5.90;;;9.60;99.90;;;;;;5057901;28;20044;-82
2022/10/31 04:36:24;;;;;;;14.65;6.20;;;9.60;99.90;;;;;;5057272;28;20051;-82
2022/10/31 04:38:50;;;;;;;12.90;5.68;;;9.60;99.90;;;;;;5057630;28;20033;-83
2022/10/31 04:41:17;;;;;;;13.40;6.07;;;9.50;99.90;;;;;;5057782;28;20048;-82
2022/10/31 04:43:44;;;;;;;15.07;6.57;;;9.50;99.90;;;;;;5041537;28;20041;-83
2022/10/31 04:46:10;;;;;;;12.98;6.15;;;9.50;99.90;;;;;;5046022;28;20038;-82
2022/10/31 04:48:37;;;;;;;12.18;6.00;;;9.50;99.90;;;;;;5034691;28;20045;-82
2022/10/31 04:51:04;;;;;;;11.93;5.80;;;9.40;99.90;;;;;;5018433;28;20043;-83
2022/10/31 04:53:31;;;;;;;14.88;7.18;;;9.40;99.90;;;;;;5034508;28;20079;-83
2022/10/31 04:56:00;;;;;;;13.75;6.57;;;9.40;99.90;;;;;;5034838;28;20045;-82
2022/10/31 04:58:28;;;;;;;13.35;6.53;;;9.40;99.90;;;;;;5067061;28;20044;-83
2022/10/31 05:00:55;;;;;;;14.35;6.80;;;9.40;99.90;;;;;;5034726;28;20072;-82
2022/10/31 05:03:22;;;;;;;15.63;6.38;;;9.40;99.90;;;;;;5050226;28;20042;-82
2022/10/31 05:05:49;;;;;;;13.60;6.60;;;9.30;99.90;;;;;;5034470;28;20103;-82
2022/10/31 05:08:16;;;;;;;15.90;6.70;;;9.30;99.90;;;;;;5040369;28;20497;-82
2022/10/31 05:10:42;;;;;;;14.77;7.07;;;9.30;99.90;;;;;;5073941;28;20052;-82
2022/10/31 05:13:09;;;;;;;14.07;6.88;;;9.30;99.90;;;;;;5074196;28;20037;-82
2022/10/31 05:15:36;;;;;;;14.32;6.80;;;9.20;99.90;;;;;;5073807;28;20123;-82
2022/10/31 05:18:03;;;;;;;13.93;6.38;;;9.20;99.90;;;;;;5056981;28;20036;-82
2022/10/31 05:20:30;;;;;;;16.08;6.93;;;9.20;99.90;;;;;;5057005;28;20032;-82
2022/10/31 05:22:58;;;;;;;15.57;6.72;;;9.20;99.90;;;;;;5073666;28;20044;-82
2022/10/31 05:25:27;;;;;;;17.65;7.20;;;9.20;99.90;;;;;;5073492;28;20036;-83
2022/10/31 05:27:55;;;;;;;14.32;6.80;;;9.20;99.90;;;;;;5088805;28;20162;-82
2022/10/31 05:30:25;;;;;;;13.95;5.97;;;8.80;99.90;;;;;;5041919;28;20045;-83
2022/10/31 05:32:52;;;;;;;14.07;6.90;;;9.10;99.90;;;;;;5049893;28;20406;-83
2022/10/31 05:35:27;;;;;;;15.05;6.50;;;9.10;99.90;;;;;;5017300;28;20048;-82
2022/10/31 05:37:54;;;;;;;14.13;6.40;;;9.10;99.90;;;;;;5060178;28;20427;-82
2022/10/31 05:40:21;;;;;;;13.52;6.65;;;9.00;99.90;;;;;;5073175;28;20035;-82
2022/10/31 05:42:52;;;;;;;15.73;6.78;;;9.00;99.90;;;;;;5056704;28;20040;-82
2022/10/31 05:45:19;;;;;;;15.40;5.90;;;9.00;99.90;;;;;;5056649;28;20110;-83
2022/10/31 05:47:54;;;;;;;13.10;6.78;;;9.00;99.90;;;;;;5071670;28;20037;-82
2022/10/31 05:50:22;;;;;;;10.52;5.85;;;9.00;99.90;;;;;;5068502;28;20041;-82
2022/10/31 05:52:55;;;;;;;15.70;6.53;;;9.00;99.90;;;;;;5037081;28;20048;-82
2022/10/31 05:55:22;;;;;;;14.07;6.30;;;9.00;99.90;;;;;;5036463;28;20048;-82
2022/10/31 05:57:49;;;;;;;11.40;6.13;;;8.90;99.90;;;;;;5036857;28;20037;-82
2022/10/31 06:00:16;;;;;;;11.57;5.88;;;8.90;99.90;;;;;;5038698;28;20033;-82
2022/10/31 06:02:42;;;;;;;13.98;6.63;;;8.90;99.90;;;;;;5056489;28;20044;-83
2022/10/31 06:05:09;;;;;;;14.95;6.05;;;8.90;99.90;;;;;;5056551;28;20063;-82
2022/10/31 06:07:36;;;;;;;14.15;6.60;;;8.90;99.90;;;;;;5039962;28;20051;-82
2022/10/31 06:10:05;;;;;;;15.25;6.80;;;8.90;99.90;;;;;;5055367;28;20041;-82
2022/10/31 06:12:37;;;;;;;15.63;6.30;;;8.90;99.90;;;;;;5016246;28;20052;-82
2022/10/31 06:15:08;;;;;;;12.63;6.75;;;8.90;99.90;;;;;;5032992;28;20056;-82
2022/10/31 06:17:35;;;;;;;12.75;6.50;;;8.80;99.90;;;;;;5000883;28;20406;-82
2022/10/31 06:20:04;;;;;;;13.52;6.13;;;8.80;99.90;;;;;;5024284;28;20042;-82
2022/10/31 06:22:30;;;;;;;13.95;5.97;;;8.80;99.90;;;;;;5065745;28;20067;-82
2022/10/31 06:24:57;;;;;;;12.32;5.97;;;8.80;99.90;;;;;;5039765;28;20094;-82
2022/10/31 06:27:24;;;;;;;14.75;6.32;;;8.80;99.90;;;;;;5039207;28;20404;-83
2022/10/31 06:29:51;;;;;;;13.90;6.03;;;8.80;99.90;;;;;;5055564;28;20131;-82
2022/10/31 06:32:18;;;;;;;14.43;6.97;;;8.80;99.90;;;;;;5055772;28;20194;-82
2022/10/31 06:34:47;;;;;;;14.23;7.07;;;8.70;99.90;;;;;;5055666;28;20084;-83
2022/10/31 06:37:17;;;;;;;14.95;6.30;;;8.70;99.90;;;;;;5072189;28;20396;-83
2022/10/31 06:39:44;;;;;;;13.55;6.90;;;8.70;99.90;;;;;;5039703;28;20404;-83
2022/10/31 06:42:11;;;;;;;14.40;6.78;;;8.70;99.90;;;;;;5056092;28;20047;-82
2022/10/31 06:44:37;;;;;;;12.57;6.65;;;8.70;99.90;;;;;;5055636;28;20051;-83
2022/10/31 06:47:05;;;;;;;14.38;6.80;;;8.80;99.90;;;;;;5055969;28;20502;-82
2022/10/31 06:49:32;;;;;;;16.85;7.38;;;9.00;99.90;;;;;;5071859;28;20534;-82
2022/10/31 06:51:59;;;;;;;15.20;7.38;;;8.80;99.90;;;;;;5055233;28;20045;-82
2022/10/31 06:54:25;;;;;;;12.18;6.57;;;8.80;99.90;;;;;;5052306;28;20127;-82
2022/10/31 06:56:52;;;;;;;13.82;7.75;;;8.90;99.90;;;;;;5019559;28;20787;-83
2022/10/31 06:59:19;;;;;;;16.52;7.60;;;8.90;99.90;;;;;;5019990;28;20659;-82
2022/10/31 07:01:46;;;;;;;18.02;6.93;;;9.00;99.90;;;;;;5048158;28;20040;-83
2022/10/31 07:04:12;;;;;;;14.05;6.65;;;8.90;99.90;;;;;;5060062;28;20072;-83
2022/10/31 07:06:39;;;;;;;16.17;6.90;;;9.00;99.90;;;;;;5043230;28;20044;-83
2022/10/31 07:09:06;;;;;;;13.63;6.93;;;9.00;99.90;;;;;;5043496;28;20048;-83
2022/10/31 07:11:33;;;;;;;13.52;6.78;;;9.10;99.90;;;;;;5050188;28;20040;-83
2022/10/31 07:13:59;;;;;;;14.52;7.38;;;9.10;99.90;;;;;;5051801;28;20041;-83
2022/10/31 07:16:26;;;;;;;18.45;8.10;;;9.10;99.90;;;;;;5049568;28;20044;-83
2022/10/31 07:18:53;;;;;;;12.75;7.28;;;9.20;99.90;;;;;;5031735;28;20043;-82
2022/10/31 07:21:19;;;;;;;23.63;8.50;;;9.10;99.90;;;;;;5040707;28;20028;-83
2022/10/31 07:23:49;;;;;;;18.75;8.35;;;9.20;99.90;;;;;;5092267;28;20036;-83
2022/10/31 07:26:16;;;;;;;15.13;7.97;;;9.20;99.90;;;;;;5056176;28;20064;-83
2022/10/31 07:28:43;;;;;;;17.58;7.72;;;9.20;99.90;;;;;;5025344;28;20044;-83
2022/10/31 07:31:09;;;;;;;16.80;8.07;;;9.30;99.90;;;;;;5056822;28;20068;-83
2022/10/31 07:33:36;;;;;;;14.95;7.35;;;9.40;99.90;;;;;;5043764;28;20149;-83
2022/10/31 07:36:03;;;;;;;17.27;7.95;;;9.40;99.90;;;;;;5037177;28;20041;-83
2022/10/31 07:38:30;;;;;;;15.75;8.52;;;9.40;99.90;;;;;;5048187;28;20090;-83
2022/10/31 07:40:56;;;;;;;15.27;8.13;;;9.40;99.90;;;;;;5066661;28;20123;-83
2022/10/31 07:43:23;;;;;;;13.32;7.60;;;9.40;99.90;;;;;;5024163;28;20044;-83
2022/10/31 07:45:54;;;;;;;15.40;7.63;;;9.60;99.90;;;;;;5034259;28;20154;-83
2022/10/31 07:48:21;;;;;;;14.23;7.97;;;9.50;99.90;;;;;;5043150;28;20044;-83
2022/10/31 07:50:47;;;;;;;15.88;7.90;;;9.50;99.90;;;;;;5067464;28;20039;-83
2022/10/31 07:53:14;;;;;;;19.70;8.52;;;9.60;99.90;;;;;;5047966;28;20058;-82
2022/10/31 07:55:41;;;;;;;17.63;9.05;;;9.60;99.90;;;;;;5046192;28;20401;-83
2022/10/31 07:58:14;;;;;;;15.30;9.07;;;9.60;99.90;;;;;;5058035;28;20048;-83
2022/10/31 08:00:42;;;;;;;15.50;8.27;;;9.60;99.90;;;;;;5055588;28;20489;-82
2022/10/31 08:03:12;;;;;;;18.10;9.40;;;9.70;99.90;;;;;;5063357;28;20420;-81
2022/10/31 08:05:40;;;;;;;17.23;8.70;;;9.70;99.90;;;;;;5068836;28;20029;-83
2022/10/31 08:08:08;;;;;;;20.98;8.57;;;9.80;99.90;;;;;;5039332;28;20412;-83
2022/10/31 08:10:35;;;;;;;23.88;9.82;;;9.90;99.90;;;;;;5064241;28;20090;-83
2022/10/31 08:13:04;;;;;;;16.70;9.48;;;9.90;99.90;;;;;;5049659;28;20051;-83
2022/10/31 08:15:33;;;;;;;18.70;9.68;;;9.90;99.90;;;;;;5088088;28;20574;-83
2022/10/31 08:18:01;;;;;;;24.38;11.05;;;10.00;99.90;;;;;;5063364;28;20036;-82
2022/10/31 08:20:28;;;;;;;26.17;10.57;;;10.00;99.90;;;;;;5049705;28;20048;-83
2022/10/31 08:23:00;;;;;;;17.48;9.65;;;10.10;99.90;;;;;;5054754;28;20036;-83
2022/10/31 08:25:29;;;;;;;18.20;9.77;;;10.10;99.90;;;;;;5063271;28;20048;-83
2022/10/31 08:27:57;;;;;;;17.75;8.55;;;10.20;99.90;;;;;;5057960;28;20061;-83
2022/10/31 08:30:28;;;;;;;16.60;8.75;;;10.30;99.90;;;;;;5040553;28;20044;-82
2022/10/31 08:33:08;;;;;;;21.23;9.07;;;10.30;99.90;;;;;;5051192;28;21387;-82
2022/10/31 08:35:35;;;;;;;17.33;9.20;;;10.40;99.90;;;;;;5048342;28;20081;-83
2022/10/31 08:38:02;;;;;;;14.80;8.15;;;10.40;99.90;;;;;;5037607;28;20139;-83
2022/10/31 08:40:32;;;;;;;15.45;8.27;;;10.50;99.90;;;;;;5054102;28;20029;-84
2022/10/31 08:43:04;;;;;;;19.95;8.85;;;10.60;99.90;;;;;;5053875;28;20048;-84
2022/10/31 08:45:32;;;;;;;15.63;7.93;;;10.60;99.90;;;;;;5064751;28;20044;-83
2022/10/31 08:48:01;;;;;;;18.35;7.93;;;10.70;99.90;;;;;;5073643;28;20040;-83
2022/10/31 08:50:30;;;;;;;13.80;7.57;;;10.70;99.90;;;;;;5057496;28;20116;-85
2022/10/31 08:53:05;;;;;;;13.90;8.20;;;10.80;99.90;;;;;;5067781;28;20033;-83
2022/10/31 08:55:39;;;;;;;13.77;7.65;;;10.80;99.90;;;;;;5054144;28;20123;-83
2022/10/31 08:58:09;;;;;;;13.05;7.38;;;10.80;99.90;;;;;;5033791;28;20502;-83
2022/10/31 09:00:36;;;;;;;12.00;7.43;;;10.90;99.90;;;;;;5050269;28;20033;-83
2022/10/31 09:03:06;;;;;;;15.05;8.35;;;10.90;99.90;;;;;;5048728;28;20041;-83
2022/10/31 09:05:33;;;;;;;19.88;8.52;;;11.00;99.90;;;;;;5054089;28;20032;-83
2022/10/31 09:08:02;;;;;;;15.32;8.38;;;11.00;99.90;;;;;;5053740;28;20045;-83
2022/10/31 09:10:30;;;;;;;17.08;8.57;;;11.10;99.90;;;;;;5058699;28;20051;-83
2022/10/31 09:12:58;;;;;;;16.40;8.65;;;11.20;99.90;;;;;;5045594;28;20048;-83
2022/10/31 09:15:26;;;;;;;14.95;7.90;;;11.20;99.90;;;;;;5090171;28;20044;-83
2022/10/31 09:17:53;;;;;;;15.10;8.75;;;11.30;99.90;;;;;;5056719;28;20068;-83
2022/10/31 09:20:21;;;;;;;19.52;9.85;;;11.40;99.90;;;;;;5073679;28;20068;-83
2022/10/31 09:22:47;;;;;;;19.38;9.32;;;11.50;99.90;;;;;;5090188;28;20033;-83
2022/10/31 09:25:14;;;;;;;17.25;9.50;;;11.60;99.90;;;;;;5072957;28;20051;-82
2022/10/31 09:27:41;;;;;;;17.77;9.25;;;11.70;99.90;;;;;;5072441;28;20490;-83
2022/10/31 09:30:08;;;;;;;17.88;9.25;;;11.80;99.90;;;;;;5040407;28;20601;-83
2022/10/31 09:32:34;;;;;;;19.77;9.65;;;11.90;99.90;;;;;;5090248;28;20044;-83
2022/10/31 09:35:01;;;;;;;20.30;10.20;;;12.00;99.90;;;;;;5040104;28;20105;-83
2022/10/31 09:37:28;;;;;;;19.58;9.48;;;12.10;99.90;;;;;;5033492;28;20060;-83
2022/10/31 09:39:54;;;;;;;19.63;9.23;;;12.20;99.90;;;;;;5016960;28;20124;-83
2022/10/31 09:42:49;;;;;;;20.55;9.63;;;12.30;99.90;;;;;;5017009;28;20034;-83
2022/10/31 09:45:25;;;;;;;21.98;10.88;;;12.40;99.90;;;;;;5033206;28;20041;-83
2022/10/31 09:48:06;;;;;;;21.05;9.38;;;12.50;99.90;;;;;;5045899;28;20045;-83
2022/10/31 09:50:36;;;;;;;18.48;8.90;;;12.60;99.90;;;;;;5085909;28;20123;-83
2022/10/31 09:53:15;;;;;;;18.48;9.43;;;12.70;99.90;;;;;;5064413;28;20524;-83
2022/10/31 09:55:46;;;;;;;16.38;8.95;;;12.80;99.90;;;;;;5073115;28;20492;-83
2022/10/31 09:58:28;;;;;;;20.45;8.38;;;12.90;99.90;;;;;;5072168;28;20046;-83
2022/10/31 10:00:59;;;;;;;18.70;8.10;;;13.00;99.90;;;;;;5072834;28;20094;-83
2022/10/31 10:03:36;;;;;;;14.68;7.72;;;13.10;99.90;;;;;;5073264;28;20037;-83
2022/10/31 10:06:17;;;;;;;16.02;7.78;;;13.10;99.90;;;;;;5056441;28;20064;-83
2022/10/31 10:08:44;;;;;;;18.48;8.23;;;13.20;99.90;;;;;;5069160;28;20040;-83
2022/10/31 10:11:31;;;;;;;16.55;8.10;;;13.30;99.90;;;;;;5020050;28;20051;-84
2022/10/31 10:14:38;;;;;;;19.08;7.88;;;13.40;99.90;;;;;;5068812;28;20124;-83
2022/10/31 10:17:15;;;;;;;16.38;7.35;;;13.40;99.90;;;;;;5025719;28;20083;-83
2022/10/31 10:20:13;;;;;;;17.38;7.68;;;13.50;99.90;;;;;;5062851;28;20036;-83
2022/10/31 10:22:51;;;;;;;13.10;6.57;;;13.50;99.90;;;;;;5052833;28;20041;-83
2022/10/31 10:25:33;;;;;;;12.73;7.07;;;13.60;99.90;;;;;;5052165;28;20305;-83
2022/10/31 10:28:06;;;;;;;13.93;6.90;;;13.60;99.90;;;;;;5048442;28;20123;-83
2022/10/31 10:30:50;;;;;;;15.25;6.75;;;13.60;99.90;;;;;;5065803;28;20052;-83
2022/10/31 10:33:32;;;;;;;13.77;6.60;;;13.70;99.90;;;;;;5065298;28;20047;-83
2022/10/31 10:36:03;;;;;;;15.00;7.40;;;13.70;99.90;;;;;;5064796;28;20045;-83
2022/10/31 10:38:37;;;;;;;17.27;6.97;;;13.70;99.90;;;;;;5042331;28;20034;-83
2022/10/31 10:41:15;;;;;;;15.88;8.13;;;13.50;99.90;;;;;;5028974;28;20042;-83
2022/10/31 10:43:42;;;;;;;14.82;7.82;;;13.60;99.90;;;;;;5056797;28;20091;-83
2022/10/31 10:49:21;;;;;;;16.65;7.80;;;13.60;99.90;;;;;;5046969;28;20462;-83
2022/10/31 10:51:56;;;;;;;18.40;8.15;;;13.60;99.90;;;;;;5035639;28;20125;-83
2022/10/31 10:54:53;;;;;;;17.33;8.05;;;13.70;99.90;;;;;;5045201;28;20050;-83
2022/10/31 10:57:36;;;;;;;19.10;7.90;;;13.80;99.90;;;;;;5029054;28;20049;-83
2022/10/31 11:00:21;;;;;;;18.40;7.70;;;13.90;99.90;;;;;;5034789;28;20033;-84
2022/10/31 11:02:48;;;;;;;18.83;7.87;;;13.90;99.90;;;;;;5068847;28;20037;-83
2022/10/31 11:05:37;;;;;;;16.25;7.80;;;14.00;99.90;;;;;;5052679;28;20040;-83
2022/10/31 11:08:05;;;;;;;18.55;7.85;;;14.00;99.90;;;;;;5068815;28;20045;-83
2022/10/31 11:10:33;;;;;;;17.27;7.47;;;14.10;99.90;;;;;;5064863;28;20383;-83
2022/10/31 11:13:21;;;;;;;15.77;6.63;;;14.10;99.90;;;;;;5032496;28;20668;-83
2022/10/31 11:15:53;;;;;;;12.93;6.05;;;14.10;99.90;;;;;;5048921;28;20041;-83
2022/10/31 11:18:26;;;;;;;12.02;6.28;;;14.20;99.90;;;;;;5081297;28;20493;-84
2022/10/31 11:20:56;;;;;;;15.05;6.95;;;14.10;99.90;;;;;;5068747;28;20041;-84
2022/10/31 11:23:25;;;;;;;12.23;6.13;;;14.20;99.90;;;;;;5066822;28;20080;-83
2022/10/31 11:26:03;;;;;;;13.00;6.13;;;14.10;99.90;;;;;;5065346;28;20056;-83
2022/10/31 11:28:34;;;;;;;12.32;6.53;;;14.10;99.90;;;;;;5052022;28;20041;-83
2022/10/31 11:31:12;;;;;;;15.68;5.95;;;14.10;99.90;;;;;;5048873;28;20095;-83
2022/10/31 11:33:46;;;;;;;12.95;6.45;;;14.10;99.90;;;;;;5048666;28;20048;-83
2022/10/31 11:36:18;;;;;;;11.57;6.00;;;14.20;99.90;;;;;;5057922;28;20044;-82
2022/10/31 11:38:45;;;;;;;12.23;6.22;;;14.30;99.90;;;;;;5058391;28;20124;-83
2022/10/31 11:41:18;;;;;;;13.98;5.43;;;14.30;99.90;;;;;;5014149;28;20517;-83
2022/10/31 11:43:55;;;;;;;10.52;5.70;;;14.40;99.90;;;;;;5048745;28;20045;-82
2022/10/31 11:46:37;;;;;;;14.55;5.68;;;14.50;99.90;;;;;;5048255;28;20454;-83
2022/10/31 11:49:10;;;;;;;12.10;4.90;;;14.60;99.90;;;;;;5050349;28;20490;-83
2022/10/31 11:51:37;;;;;;;11.27;4.47;;;14.60;99.90;;;;;;5061778;28;20045;-83
2022/10/31 11:54:05;;;;;;;10.02;4.55;;;14.60;99.90;;;;;;5062902;28;20042;-83
2022/10/31 11:56:41;;;;;;;11.38;5.22;;;14.70;99.90;;;;;;5051525;28;20044;-83
2022/10/31 11:59:38;;;;;;;8.50;4.22;;;14.80;99.90;;;;;;5052127;28;20052;-83
2022/10/31 12:02:18;;;;;;;8.15;3.90;;;14.80;99.90;;;;;;5040964;28;20056;-83
2022/10/31 12:04:48;;;;;;;9.52;3.97;;;14.80;99.90;;;;;;5077329;28;20387;-83
2022/10/31 12:07:15;;;;;;;7.53;3.95;;;14.80;99.90;;;;;;5068493;28;20767;-83
2022/10/31 12:09:42;;;;;;;9.43;3.95;;;14.90;99.90;;;;;;5038857;28;20134;-83
2022/10/31 12:12:15;;;;;;;10.18;4.93;;;14.90;99.90;;;;;;5036689;28;20045;-83
2022/10/31 12:14:53;;;;;;;11.38;4.55;;;14.90;99.90;;;;;;5071409;28;20052;-83
2022/10/31 12:17:38;;;;;;;9.15;4.75;;;14.90;99.90;;;;;;5064425;28;20052;-83
2022/10/31 12:20:12;;;;;;;14.37;4.80;;;14.90;99.90;;;;;;5075953;28;20087;-83
2022/10/31 12:23:15;;;;;;;9.85;4.53;;;14.90;99.90;;;;;;5071078;28;20283;-83
2022/10/31 12:25:56;;;;;;;11.20;4.97;;;15.00;99.90;;;;;;5053842;28;20037;-83
2022/10/31 12:28:51;;;;;;;11.70;4.78;;;15.10;99.90;;;;;;5042351;28;20128;-83
2022/10/31 12:31:36;;;;;;;13.48;5.93;;;15.10;99.90;;;;;;5037671;28;20262;-83
2022/10/31 12:34:32;;;;;;;11.07;5.50;;;15.20;99.90;;;;;;5071029;28;20055;-83
2022/10/31 12:37:20;;;;;;;15.45;6.25;;;15.20;99.90;;;;;;5038173;28;20054;-83
2022/10/31 12:40:05;;;;;;;10.95;5.63;;;15.30;99.90;;;;;;5058876;28;20033;-83
2022/10/31 12:43:02;;;;;;;12.88;5.32;;;15.30;99.90;;;;;;5053554;28;20033;-83
2022/10/31 12:45:54;;;;;;;11.40;5.30;;;15.30;99.90;;;;;;5067430;28;20491;-83
2022/10/31 12:48:36;;;;;;;10.57;5.30;;;15.30;99.90;;;;;;5072877;28;20103;-83
2022/10/31 12:51:23;;;;;;;12.05;5.38;;;15.20;99.90;;;;;;5054958;28;20080;-83
2022/10/31 12:54:20;;;;;;;8.55;4.72;;;15.20;99.90;;;;;;5046718;28;20049;-82
2022/10/31 12:57:02;;;;;;;11.05;4.97;;;15.20;99.90;;;;;;5050888;28;20397;-83
2022/10/31 12:59:48;;;;;;;17.92;5.05;;;15.30;99.90;;;;;;5050681;28;20049;-84
2022/10/31 13:02:18;;;;;;;18.35;4.88;;;15.20;99.90;;;;;;5051213;28;20037;-84
2022/10/31 13:04:48;;;;;;;11.50;5.43;;;15.20;99.90;;;;;;5050862;28;20041;-84
2022/10/31 13:07:25;;;;;;;11.63;5.40;;;15.20;99.90;;;;;;5051339;28;20042;-83